Time;durP1;ratioP1;P1;durP2;ratioP2;P2;SDS_P1;SDS_P2;PMS_P1;PMS_P2;Temp;Humidity;BMP_temperature;BMP_pressure;BME280_temperature;BME280_humidity;BME280_pressure;Samples;Min_cycle;Max_cycle;Signal;HPM_P1;HPM_P2
2021/12/11 00:01:46;;;;;;;0.40;0.40;;;;;;;-0.03;100.00;99794.94;4988348;28;20065;-83
2021/12/11 00:04:23;;;;;;;0.30;0.30;;;;;;;-0.06;100.00;99806.06;4992796;28;20384;-84
2021/12/11 00:07:00;;;;;;;0.30;0.30;;;;;;;0.00;100.00;99807.03;4993482;28;20050;-85
2021/12/11 00:09:37;;;;;;;0.40;0.40;;;;;;;-0.09;100.00;99793.16;4990979;28;20045;-84
2021/12/11 00:12:12;;;;;;;0.30;0.30;;;;;;;-0.06;100.00;99799.91;4990443;28;20041;-84
2021/12/11 00:14:49;;;;;;;0.20;0.20;;;;;;;-0.08;100.00;99802.03;4990646;28;20534;-84
2021/12/11 00:17:22;;;;;;;0.30;0.30;;;;;;;-0.13;100.00;99807.25;4992541;28;20050;-85
2021/12/11 00:19:50;;;;;;;0.30;0.30;;;;;;;-0.09;100.00;99814.56;4992804;28;20038;-84
2021/12/11 00:22:28;;;;;;;0.40;0.40;;;;;;;-0.14;100.00;99811.75;4989622;28;20051;-85
2021/12/11 00:24:59;;;;;;;0.30;0.30;;;;;;;-0.16;100.00;99818.41;4992850;28;20046;-84
2021/12/11 00:27:35;;;;;;;0.25;0.25;;;;;;;-0.15;100.00;99820.84;4993328;28;20046;-85
2021/12/11 00:30:18;;;;;;;0.30;0.30;;;;;;;-0.11;100.00;99821.19;4991039;28;20046;-84
2021/12/11 00:32:46;;;;;;;0.30;0.30;;;;;;;-0.07;100.00;99825.84;4985916;28;20050;-85
2021/12/11 00:35:21;;;;;;;0.32;0.32;;;;;;;-0.08;100.00;99832.25;4996808;28;20061;-84
2021/12/11 00:38:01;;;;;;;0.30;0.30;;;;;;;-0.03;100.00;99842.25;4992624;28;20050;-84
2021/12/11 00:40:30;;;;;;;0.30;0.30;;;;;;;-0.02;100.00;99842.00;4992656;28;20042;-84
2021/12/11 00:43:07;;;;;;;0.30;0.30;;;;;;;-0.04;100.00;99851.34;4984217;28;20057;-84
2021/12/11 00:45:41;;;;;;;0.30;0.30;;;;;;;-0.05;100.00;99844.34;4989318;28;20050;-84
2021/12/11 00:48:18;;;;;;;0.20;0.20;;;;;;;-0.10;100.00;99852.22;4989900;28;20427;-85
2021/12/11 00:50:56;;;;;;;0.30;0.30;;;;;;;-0.06;100.00;99861.44;4990172;28;20046;-84
2021/12/11 00:53:30;;;;;;;;;;;;;;;-0.04;100.00;99870.06;4987124;28;20058;-84
2021/12/11 00:56:00;;;;;;;0.30;0.30;;;;;;;-0.07;100.00;99871.31;5017008;28;19925;-84
2021/12/11 00:58:37;;;;;;;0.40;0.40;;;;;;;-0.03;100.00;99877.84;4993882;28;20050;-85
2021/12/11 01:01:14;;;;;;;0.30;0.30;;;;;;;-0.03;100.00;99885.03;4990564;28;20046;-84
2021/12/11 01:03:51;;;;;;;0.28;0.28;;;;;;;-0.12;100.00;99889.09;4990957;28;20046;-85
2021/12/11 01:06:26;;;;;;;0.28;0.28;;;;;;;-0.07;100.00;99897.25;4992245;28;20047;-84
2021/12/11 01:09:04;;;;;;;0.28;0.28;;;;;;;-0.06;100.00;99898.88;4990014;28;20046;-85
2021/12/11 01:11:41;;;;;;;0.32;0.32;;;;;;;-0.09;100.00;99899.34;4991691;28;20042;-84
2021/12/11 01:14:24;;;;;;;0.30;0.30;;;;;;;-0.12;100.00;99897.13;4990489;28;20058;-85
2021/12/11 01:17:01;;;;;;;0.30;0.30;;;;;;;-0.12;100.00;99899.81;4989661;28;20046;-84
2021/12/11 01:19:39;;;;;;;0.30;0.30;;;;;;;-0.14;100.00;99907.22;4984855;28;20050;-84
2021/12/11 01:22:22;;;;;;;;;;;;;;;-0.13;100.00;99904.31;4990202;28;20363;-85
2021/12/11 01:24:56;;;;;;;0.30;0.30;;;;;;;-0.11;100.00;99910.28;4987673;28;19922;-85
2021/12/11 01:27:30;;;;;;;0.30;0.30;;;;;;;-0.12;100.00;99910.50;4995845;28;20045;-85
2021/12/11 01:30:07;;;;;;;0.32;0.32;;;;;;;-0.16;100.00;99912.00;4987970;28;20046;-84
2021/12/11 01:32:36;;;;;;;0.30;0.30;;;;;;;-0.15;100.00;99922.47;4978138;28;20042;-84
2021/12/11 01:35:09;;;;;;;0.30;0.30;;;;;;;-0.11;100.00;99931.66;5024178;28;20046;-85
2021/12/11 01:37:41;;;;;;;0.22;0.22;;;;;;;-0.11;100.00;99930.84;4990360;28;20050;-85
2021/12/11 01:40:18;;;;;;;0.30;0.30;;;;;;;-0.08;100.00;99947.25;4992890;28;20406;-84
2021/12/11 01:42:48;;;;;;;0.40;0.40;;;;;;;-0.07;100.00;99946.22;4991207;28;20783;-85
2021/12/11 01:45:23;;;;;;;0.30;0.30;;;;;;;-0.09;100.00;99942.94;4992836;28;20065;-84
2021/12/11 01:47:56;;;;;;;0.40;0.40;;;;;;;-0.09;100.00;99953.63;4989597;28;20046;-85
2021/12/11 01:50:32;;;;;;;0.30;0.30;;;;;;;-0.12;100.00;99942.59;4989639;28;20046;-84
2021/12/11 01:53:10;;;;;;;0.28;0.28;;;;;;;-0.13;100.00;99957.00;4992133;28;20406;-85
2021/12/11 01:55:50;;;;;;;0.30;0.30;;;;;;;-0.13;100.00;99959.69;4992228;28;20054;-84
2021/12/11 01:58:26;;;;;;;0.40;0.40;;;;;;;-0.11;100.00;99960.25;4990580;28;20054;-84
2021/12/11 02:01:09;;;;;;;0.30;0.30;;;;;;;-0.14;100.00;99961.53;4991947;28;20559;-85
2021/12/11 02:03:43;;;;;;;0.30;0.30;;;;;;;-0.14;100.00;99969.53;4983111;28;20097;-84
2021/12/11 02:06:16;;;;;;;0.20;0.20;;;;;;;-0.14;100.00;99968.75;4989935;28;20046;-84
2021/12/11 02:08:45;;;;;;;0.30;0.30;;;;;;;-0.15;100.00;99985.81;4991782;28;20906;-85
2021/12/11 02:11:21;;;;;;;0.30;0.30;;;;;;;-0.15;100.00;99975.97;4989375;28;20049;-84
2021/12/11 02:13:59;;;;;;;0.30;0.30;;;;;;;-0.14;100.00;99977.56;4991412;28;20053;-84
2021/12/11 02:16:38;;;;;;;0.25;0.25;;;;;;;-0.13;100.00;99981.06;4989123;28;20057;-83
2021/12/11 02:19:15;;;;;;;0.30;0.30;;;;;;;-0.16;100.00;99985.00;5002641;28;20514;-84
2021/12/11 02:21:49;;;;;;;0.20;0.20;;;;;;;-0.18;100.00;99982.56;4992624;28;20051;-84
2021/12/11 02:24:25;;;;;;;0.20;0.20;;;;;;;-0.16;100.00;99987.69;4993338;28;20038;-84
2021/12/11 02:26:59;;;;;;;0.30;0.30;;;;;;;-0.19;100.00;99982.81;4993453;28;20046;-84
2021/12/11 02:29:35;;;;;;;0.30;0.30;;;;;;;-0.15;100.00;99994.69;4986358;28;20046;-84
2021/12/11 02:32:08;;;;;;;0.30;0.30;;;;;;;-0.15;100.00;99994.69;4993968;28;20822;-82
2021/12/11 02:34:45;;;;;;;0.30;0.30;;;;;;;-0.05;100.00;99997.63;4989027;28;20049;-84
2021/12/11 02:37:18;;;;;;;0.20;0.20;;;;;;;-0.12;100.00;100009.47;4991075;28;20046;-81
2021/12/11 02:39:50;;;;;;;0.20;0.20;;;;;;;-0.14;100.00;100011.53;4993149;28;20046;-84
2021/12/11 02:42:28;;;;;;;0.30;0.30;;;;;;;-0.13;100.00;100010.50;4992319;28;20046;-84
2021/12/11 02:45:08;;;;;;;0.30;0.30;;;;;;;-0.13;100.00;100005.16;4989756;28;20050;-84
2021/12/11 02:47:47;;;;;;;0.35;0.35;;;;;;;-0.11;100.00;100016.41;4992595;28;20057;-84
2021/12/11 02:50:23;;;;;;;0.28;0.28;;;;;;;-0.10;100.00;100024.22;4991536;28;20430;-83
2021/12/11 02:53:03;;;;;;;0.30;0.30;;;;;;;-0.03;100.00;100024.13;4992401;28;20050;-84
2021/12/11 02:55:39;;;;;;;0.25;0.25;;;;;;;-0.10;100.00;100028.75;4990523;28;20305;-84
2021/12/11 02:58:16;;;;;;;0.30;0.30;;;;;;;-0.11;100.00;100035.16;4989476;28;20050;-84
2021/12/11 03:00:57;;;;;;;0.37;0.37;;;;;;;-0.16;100.00;100030.47;4988682;28;20053;-83
2021/12/11 03:03:30;;;;;;;0.30;0.30;;;;;;;-0.11;100.00;100048.53;4988910;28;20305;-83
2021/12/11 03:06:05;;;;;;;0.30;0.30;;;;;;;-0.15;100.00;100041.97;4989207;28;20053;-83
2021/12/11 03:08:35;;;;;;;0.20;0.20;;;;;;;-0.14;100.00;100052.44;4992076;28;20406;-84
2021/12/11 03:11:17;;;;;;;0.30;0.30;;;;;;;-0.12;100.00;100052.25;4990431;28;20046;-83
2021/12/11 03:13:52;;;;;;;0.30;0.30;;;;;;;-0.10;100.00;100052.84;4988727;28;20046;-84
2021/12/11 03:16:31;;;;;;;0.20;0.20;;;;;;;-0.05;100.00;100055.66;4991161;28;20046;-84
2021/12/11 03:19:00;;;;;;;0.30;0.30;;;;;;;-0.13;100.00;100053.28;4992770;28;20046;-84
2021/12/11 03:21:29;;;;;;;0.30;0.30;;;;;;;-0.07;100.00;100058.56;4993336;28;20059;-83
2021/12/11 03:24:05;;;;;;;0.30;0.30;;;;;;;-0.07;100.00;100061.25;4985131;28;20035;-83
2021/12/11 03:26:33;;;;;;;0.30;0.30;;;;;;;-0.01;100.00;100059.50;4991373;28;20430;-84
2021/12/11 03:29:02;;;;;;;0.28;0.28;;;;;;;-0.05;100.00;100061.00;5002897;28;20113;-83
2021/12/11 03:31:37;;;;;;;0.30;0.30;;;;;;;-0.11;100.00;100054.69;4990625;28;20069;-83
2021/12/11 03:34:07;;;;;;;0.30;0.30;;;;;;;-0.01;100.00;100059.50;4989840;28;20061;-84
2021/12/11 03:36:36;;;;;;;0.20;0.20;;;;;;;-0.09;100.00;100059.81;4991148;28;20055;-84
2021/12/11 03:39:13;;;;;;;0.30;0.30;;;;;;;-0.13;100.00;100072.00;4991262;28;20058;-83
2021/12/11 03:41:49;;;;;;;0.32;0.32;;;;;;;-0.06;100.00;100081.56;4999500;28;20054;-84
2021/12/11 03:44:23;;;;;;;0.30;0.30;;;;;;;-0.06;100.00;100092.28;5023273;28;20062;-84
2021/12/11 03:46:56;;;;;;;0.30;0.30;;;;;;;-0.14;100.00;100075.72;4990185;28;20055;-84
2021/12/11 03:49:25;;;;;;;0.20;0.20;;;;;;;-0.18;100.00;100078.84;4988258;28;20050;-82
2021/12/11 03:51:58;;;;;;;0.30;0.30;;;;;;;-0.13;100.00;100086.19;4988414;28;20046;-83
2021/12/11 03:54:38;;;;;;;0.30;0.30;;;;;;;-0.16;100.00;100081.28;4990188;28;20046;-84
2021/12/11 03:57:08;;;;;;;0.30;0.30;;;;;;;-0.08;100.00;100082.88;5019454;28;20057;-83
2021/12/11 03:59:43;;;;;;;0.30;0.30;;;;;;;-0.13;100.00;100075.50;5001495;28;20046;-84
2021/12/11 04:02:21;;;;;;;0.30;0.30;;;;;;;-0.14;100.00;100081.88;4987337;28;20054;-84
2021/12/11 04:04:54;;;;;;;0.30;0.30;;;;;;;-0.21;100.00;100105.22;4991932;28;20046;-83
2021/12/11 04:07:32;;;;;;;0.30;0.30;;;;;;;-0.23;100.00;100105.44;4995031;28;20364;-83
2021/12/11 04:10:10;;;;;;;0.30;0.30;;;;;;;-0.26;100.00;100097.03;4993149;28;20046;-84
2021/12/11 04:12:39;;;;;;;0.38;0.38;;;;;;;-0.27;100.00;100108.78;4996227;28;20046;-83
2021/12/11 04:15:13;;;;;;;0.30;0.30;;;;;;;-0.31;100.00;100103.06;4992739;28;20057;-84
2021/12/11 04:17:46;;;;;;;0.30;0.30;;;;;;;-0.25;100.00;100112.03;4991815;28;20054;-83
2021/12/11 04:20:22;;;;;;;0.28;0.28;;;;;;;-0.20;100.00;100120.22;4996186;28;20045;-83
2021/12/11 04:22:56;;;;;;;0.20;0.20;;;;;;;-0.23;100.00;100126.81;4991438;28;20050;-84
2021/12/11 04:25:31;;;;;;;0.20;0.20;;;;;;;-0.29;100.00;100126.88;4996630;28;20050;-84
2021/12/11 04:28:05;;;;;;;0.20;0.20;;;;;;;-0.33;100.00;100123.03;4990204;28;20055;-84
2021/12/11 04:30:34;;;;;;;0.22;0.22;;;;;;;-0.47;100.00;100112.50;4991810;28;20051;-84
2021/12/11 04:33:02;;;;;;;0.30;0.30;;;;;;;-0.33;100.00;100126.53;4991333;28;20046;-84
2021/12/11 04:35:36;;;;;;;0.20;0.20;;;;;;;-0.37;100.00;100128.00;4987679;28;20061;-84
2021/12/11 04:38:08;;;;;;;0.20;0.20;;;;;;;-0.31;100.00;100148.50;4992481;28;20057;-83
2021/12/11 04:40:48;;;;;;;0.20;0.20;;;;;;;-0.30;100.00;100144.81;4988479;28;20058;-84
2021/12/11 04:43:20;;;;;;;0.30;0.30;;;;;;;-0.27;100.00;100146.22;4991339;28;20042;-84
2021/12/11 04:45:53;;;;;;;0.35;0.35;;;;;;;-0.17;100.00;100149.19;4992471;28;20054;-83
2021/12/11 04:48:37;;;;;;;0.30;0.30;;;;;;;-0.31;100.00;100145.84;4990854;28;20054;-84
2021/12/11 04:51:18;;;;;;;0.30;0.30;;;;;;;-0.45;100.00;100130.97;4993137;28;20072;-84
2021/12/11 04:54:02;;;;;;;0.30;0.30;;;;;;;-0.52;100.00;100139.84;4994841;28;20051;-84
2021/12/11 04:56:59;;;;;;;0.30;0.30;;;;;;;-0.43;100.00;100152.94;4978749;28;20058;-83
2021/12/11 04:59:43;;;;;;;0.20;0.20;;;;;;;-0.37;100.00;100162.78;4991793;28;20061;-83
2021/12/11 05:02:42;;;;;;;0.20;0.20;;;;;;;-0.34;100.00;100165.00;4997558;28;20043;-84
2021/12/11 05:05:22;;;;;;;0.20;0.20;;;;;;;-0.38;100.00;100172.63;4987486;28;20042;-84
2021/12/11 05:08:02;;;;;;;0.20;0.20;;;;;;;-0.38;100.00;100183.31;4988348;28;20054;-83
2021/12/11 05:10:40;;;;;;;0.30;0.30;;;;;;;-0.30;100.00;100179.56;4992472;28;20463;-84
2021/12/11 05:13:14;;;;;;;;;;;;;;;-0.32;100.00;100176.28;4991292;28;20045;-83
2021/12/11 05:15:50;;;;;;;0.20;0.20;;;;;;;-0.27;100.00;100178.31;4991330;28;20290;-83
2021/12/11 05:18:27;;;;;;;0.30;0.30;;;;;;;-0.33;100.00;100174.66;4993042;28;20517;-83
2021/12/11 05:20:58;;;;;;;0.25;0.25;;;;;;;-0.33;100.00;100180.00;4984047;28;20050;-83
2021/12/11 05:23:26;;;;;;;0.20;0.20;;;;;;;-0.33;100.00;100176.50;4991192;28;20046;-83
2021/12/11 05:26:00;;;;;;;0.20;0.20;;;;;;;-0.32;100.00;100181.63;4985233;28;20057;-83
2021/12/11 05:28:36;;;;;;;0.20;0.20;;;;;;;-0.32;100.00;100189.66;4981172;28;20069;-84
2021/12/11 05:31:07;;;;;;;0.22;0.22;;;;;;;-0.33;100.00;100190.72;4982621;28;20059;-82
2021/12/11 05:33:37;;;;;;;0.28;0.28;;;;;;;-0.32;100.00;100202.22;4988465;28;20050;-85
2021/12/11 05:36:12;;;;;;;0.30;0.30;;;;;;;-0.26;100.00;100215.53;5000150;28;20050;-84
2021/12/11 05:38:47;;;;;;;0.20;0.20;;;;;;;-0.27;100.00;100229.13;4997808;28;20054;-84
2021/12/11 05:41:22;;;;;;;0.30;0.30;;;;;;;-0.29;100.00;100224.00;4991165;28;20057;-83
2021/12/11 05:43:57;;;;;;;0.30;0.30;;;;;;;-0.27;100.00;100231.78;5010078;28;20390;-82
2021/12/11 05:46:31;;;;;;;0.30;0.30;;;;;;;-0.18;100.00;100235.81;4991165;28;20050;-83
2021/12/11 05:49:00;;;;;;;0.30;0.30;;;;;;;-0.28;100.00;100230.16;4991532;28;20038;-84
2021/12/11 05:51:38;;;;;;;0.20;0.20;;;;;;;-0.28;100.00;100238.97;4991334;28;20054;-83
2021/12/11 05:54:15;;;;;;;0.20;0.20;;;;;;;-0.24;100.00;100242.03;4983973;28;20050;-82
2021/12/11 05:56:48;;;;;;;0.30;0.30;;;;;;;-0.20;100.00;100246.72;4991216;28;20055;-84
2021/12/11 05:59:23;;;;;;;0.20;0.20;;;;;;;-0.17;100.00;100253.50;4978904;28;20039;-83
2021/12/11 06:01:57;;;;;;;0.28;0.28;;;;;;;-0.19;100.00;100256.41;4990733;28;20069;-84
2021/12/11 06:04:35;;;;;;;0.20;0.20;;;;;;;-0.19;100.00;100258.25;4980236;28;20499;-84
2021/12/11 06:07:09;;;;;;;;;;;;;;;-0.16;100.00;100267.72;4986982;28;20050;-83
2021/12/11 06:09:45;;;;;;;0.20;0.20;;;;;;;-0.20;100.00;100261.97;4982093;28;19926;-83
2021/12/11 06:12:16;;;;;;;0.20;0.20;;;;;;;-0.19;100.00;100266.28;4978036;28;20051;-83
2021/12/11 06:14:52;;;;;;;0.20;0.20;;;;;;;-0.21;100.00;100271.84;4981346;28;20046;-83
2021/12/11 06:17:25;;;;;;;0.30;0.30;;;;;;;-0.22;100.00;100269.38;4985815;28;20051;-82
2021/12/11 06:20:07;;;;;;;0.20;0.20;;;;;;;-0.17;100.00;100277.56;5001005;28;20053;-83
2021/12/11 06:22:41;;;;;;;0.30;0.30;;;;;;;-0.17;100.00;100280.25;4987241;28;20403;-83
2021/12/11 06:25:17;;;;;;;0.20;0.20;;;;;;;-0.18;100.00;100282.09;4986130;28;20499;-83
2021/12/11 06:27:51;;;;;;;0.20;0.20;;;;;;;-0.07;100.00;100282.41;4982414;28;20506;-83
2021/12/11 06:30:27;;;;;;;0.20;0.20;;;;;;;-0.09;100.00;100293.34;4998954;28;20057;-83
2021/12/11 06:33:01;;;;;;;0.20;0.20;;;;;;;0.01;100.00;100303.53;4982102;28;20058;-82
2021/12/11 06:35:41;;;;;;;0.30;0.30;;;;;;;0.07;100.00;100297.34;4985827;28;20042;-84
2021/12/11 06:38:23;;;;;;;0.20;0.20;;;;;;;-0.01;100.00;100306.44;4994506;28;20411;-83
2021/12/11 06:40:57;;;;;;;0.30;0.30;;;;;;;-0.04;100.00;100303.41;4988372;28;20077;-83
2021/12/11 06:43:30;;;;;;;0.20;0.20;;;;;;;-0.10;100.00;100313.09;4983209;28;20045;-84
2021/12/11 06:46:05;;;;;;;0.20;0.20;;;;;;;-0.07;100.00;100318.03;4984362;28;20046;-84
2021/12/11 06:48:34;;;;;;;0.20;0.20;;;;;;;-0.05;100.00;100321.28;4987101;28;20065;-83
2021/12/11 06:51:08;;;;;;;0.20;0.20;;;;;;;-0.04;100.00;100327.47;4986423;28;20042;-83
2021/12/11 06:53:43;;;;;;;0.20;0.20;;;;;;;-0.01;100.00;100338.53;4986382;28;20074;-83
2021/12/11 06:56:14;;;;;;;0.30;0.30;;;;;;;-0.03;100.00;100348.66;4988511;28;20051;-85
2021/12/11 06:58:48;;;;;;;0.20;0.20;;;;;;;0.03;100.00;100354.16;4986914;28;20061;-84
2021/12/11 07:01:25;;;;;;;0.30;0.30;;;;;;;0.01;100.00;100348.22;4986490;28;20104;-83
2021/12/11 07:03:56;;;;;;;0.20;0.20;;;;;;;-0.08;100.00;100353.03;4987094;28;20520;-85
2021/12/11 07:06:25;;;;;;;0.20;0.20;;;;;;;0.03;100.00;100359.50;4990143;28;20058;-85
2021/12/11 07:09:00;;;;;;;0.30;0.30;;;;;;;-0.02;100.00;100374.34;4988038;28;20045;-85
2021/12/11 07:11:34;;;;;;;0.25;0.25;;;;;;;-0.09;100.00;100372.78;4988493;28;20077;-84
2021/12/11 07:14:08;;;;;;;0.30;0.30;;;;;;;-0.14;100.00;100377.94;4990188;28;20054;-84
2021/12/11 07:16:43;;;;;;;0.20;0.20;;;;;;;-0.21;100.00;100372.66;4990471;28;20085;-85
2021/12/11 07:19:17;;;;;;;0.20;0.20;;;;;;;-0.30;100.00;100380.13;4992640;28;20473;-84
2021/12/11 07:21:50;;;;;;;0.20;0.20;;;;;;;-0.39;100.00;100378.72;4984931;28;20063;-85
2021/12/11 07:24:22;;;;;;;0.22;0.22;;;;;;;-0.53;100.00;100392.16;4988651;28;20502;-84
2021/12/11 07:26:56;;;;;;;0.30;0.30;;;;;;;-0.55;100.00;100393.44;4989221;28;20039;-85
2021/12/11 07:29:30;;;;;;;0.20;0.20;;;;;;;-0.53;100.00;100396.69;4988209;28;20282;-83
2021/12/11 07:32:00;;;;;;;0.20;0.20;;;;;;;-0.60;100.00;100399.38;4987902;28;20054;-84
2021/12/11 07:34:34;;;;;;;0.22;0.22;;;;;;;-0.60;100.00;100401.25;4985838;28;20050;-84
2021/12/11 07:37:08;;;;;;;0.20;0.20;;;;;;;-0.67;100.00;100408.50;4986086;28;20053;-84
2021/12/11 07:39:41;;;;;;;0.20;0.20;;;;;;;-0.82;100.00;100401.53;4986886;28;20065;-83
2021/12/11 07:42:14;;;;;;;0.30;0.30;;;;;;;-0.85;100.00;100415.31;4987422;28;20057;-84
2021/12/11 07:44:48;;;;;;;0.20;0.20;;;;;;;-0.88;100.00;100418.44;4992496;28;20049;-84
2021/12/11 07:47:17;;;;;;;0.10;0.10;;;;;;;-1.00;100.00;100406.75;4993571;28;20049;-84
2021/12/11 07:49:51;;;;;;;0.30;0.30;;;;;;;-0.87;100.00;100426.22;5020599;28;20407;-84
2021/12/11 07:52:24;;;;;;;0.20;0.20;;;;;;;-0.91;100.00;100430.34;4993131;28;20050;-83
2021/12/11 07:54:57;;;;;;;0.30;0.30;;;;;;;-0.99;100.00;100421.75;4988400;28;20323;-83
2021/12/11 07:57:30;;;;;;;0.20;0.20;;;;;;;-0.81;100.00;100437.91;4992173;28;20482;-83
2021/12/11 08:00:05;;;;;;;0.30;0.30;;;;;;;-0.94;100.00;100427.25;4990517;28;20042;-83
2021/12/11 08:02:42;;;;;;;0.20;0.20;;;;;;;-0.81;100.00;100453.94;4991695;28;20073;-83
2021/12/11 08:05:15;;;;;;;0.20;0.20;;;;;;;-0.78;100.00;100450.03;4988381;28;20391;-83
2021/12/11 08:07:48;;;;;;;0.20;0.20;;;;;;;-0.75;100.00;100453.09;4989835;28;20043;-84
2021/12/11 08:10:24;;;;;;;0.20;0.20;;;;;;;-0.80;100.00;100457.44;4988711;28;20038;-83
2021/12/11 08:12:58;;;;;;;0.30;0.30;;;;;;;-0.81;100.00;100461.97;4993367;28;20050;-84
2021/12/11 08:15:28;;;;;;;0.20;0.20;;;;;;;-0.82;100.00;100467.53;4990839;28;20057;-84
2021/12/11 08:17:58;;;;;;;0.20;0.20;;;;;;;-0.86;100.00;100473.28;4990837;28;20054;-84
2021/12/11 08:20:33;;;;;;;0.20;0.20;;;;;;;-0.83;100.00;100480.03;4992119;28;20053;-84
2021/12/11 08:23:08;;;;;;;0.30;0.30;;;;;;;-0.77;100.00;100486.44;4992860;28;20046;-84
2021/12/11 08:25:47;;;;;;;0.20;0.20;;;;;;;-0.73;100.00;100491.13;4983648;28;20065;-83
2021/12/11 08:28:30;;;;;;;0.20;0.20;;;;;;;-0.72;100.00;100489.28;4991335;28;20046;-84
2021/12/11 08:31:04;;;;;;;0.28;0.28;;;;;;;-0.67;100.00;100502.03;4987412;28;20054;-84
2021/12/11 08:33:39;;;;;;;0.20;0.20;;;;;;;-0.55;100.00;100497.66;4990255;28;20378;-84
2021/12/11 08:36:08;;;;;;;0.20;0.20;;;;;;;-0.47;100.00;100500.13;4987740;28;20053;-84
2021/12/11 08:38:43;;;;;;;0.20;0.20;;;;;;;-0.37;100.00;100507.69;4991398;28;20065;-83
2021/12/11 08:41:14;;;;;;;0.20;0.20;;;;;;;-0.27;100.00;100494.66;4988781;28;20477;-83
2021/12/11 08:43:56;;;;;;;0.25;0.25;;;;;;;-0.17;100.00;100504.91;4990488;28;20426;-82
2021/12/11 08:46:33;;;;;;;0.25;0.25;;;;;;;0.02;100.00;100505.84;4988550;28;20054;-83
2021/12/11 08:49:09;;;;;;;0.25;0.25;;;;;;;0.07;100.00;100518.56;4987369;28;20487;-83
2021/12/11 08:51:49;;;;;;;0.20;0.20;;;;;;;0.17;100.00;100506.38;4986437;28;20050;-83
2021/12/11 08:54:26;;;;;;;0.20;0.20;;;;;;;0.22;100.00;100516.47;4986551;28;20427;-83
2021/12/11 08:57:04;;;;;;;0.20;0.20;;;;;;;0.38;100.00;100520.47;4988933;28;20046;-82
2021/12/11 08:59:34;;;;;;;0.30;0.30;;;;;;;0.36;100.00;100517.19;4990577;28;20050;-84
2021/12/11 09:02:13;;;;;;;0.30;0.30;;;;;;;0.51;100.00;100535.59;4984848;28;20053;-84
2021/12/11 09:04:55;;;;;;;0.20;0.20;;;;;;;0.53;100.00;100533.53;4990697;28;20499;-82
2021/12/11 09:07:31;;;;;;;0.30;0.30;;;;;;;0.63;100.00;100538.41;4992356;28;20042;-83
2021/12/11 09:10:09;;;;;;;0.25;0.25;;;;;;;0.74;100.00;100543.06;4991321;28;20424;-84
2021/12/11 09:12:46;;;;;;;0.20;0.20;;;;;;;0.76;100.00;100549.03;4989730;28;20537;-84
2021/12/11 09:15:23;;;;;;;0.23;0.23;;;;;;;0.85;100.00;100550.38;4989314;28;20046;-83
2021/12/11 09:18:00;;;;;;;0.20;0.20;;;;;;;0.77;100.00;100563.25;4998381;28;20505;-82
2021/12/11 09:20:40;;;;;;;0.30;0.30;;;;;;;0.86;100.00;100564.63;4987468;28;20047;-85
2021/12/11 09:23:19;;;;;;;0.20;0.20;;;;;;;0.81;100.00;100577.84;4994628;28;20057;-86
2021/12/11 09:25:56;;;;;;;0.20;0.20;;;;;;;0.82;100.00;100579.50;4998551;28;20518;-86
2021/12/11 09:28:33;;;;;;;0.20;0.20;;;;;;;0.77;100.00;100566.72;4987484;28;20050;-85
2021/12/11 09:31:11;;;;;;;0.30;0.30;;;;;;;0.89;100.00;100579.44;4989223;28;20050;-82
2021/12/11 09:33:51;;;;;;;0.28;0.28;;;;;;;0.91;100.00;100572.00;4987503;28;20050;-84
2021/12/11 09:36:30;;;;;;;0.30;0.30;;;;;;;0.93;100.00;100581.47;4986818;28;20053;-84
2021/12/11 09:39:08;;;;;;;0.30;0.30;;;;;;;1.00;100.00;100579.53;4988727;28;20060;-85
2021/12/11 09:41:41;;;;;;;0.30;0.30;;;;;;;1.07;100.00;100586.72;4987729;28;20057;-83
2021/12/11 09:44:18;;;;;;;0.28;0.28;;;;;;;1.14;100.00;100584.78;4981022;28;20550;-83
2021/12/11 09:46:55;;;;;;;0.30;0.30;;;;;;;1.27;100.00;100586.53;4989084;28;20042;-82
2021/12/11 09:49:32;;;;;;;0.20;0.20;;;;;;;1.16;100.00;100585.38;4986958;28;20054;-83
2021/12/11 09:52:16;;;;;;;0.30;0.30;;;;;;;1.15;100.00;100581.09;4984905;28;20308;-84
2021/12/11 09:54:53;;;;;;;0.30;0.30;;;;;;;1.17;100.00;100593.22;4986937;28;20042;-83
2021/12/11 09:57:31;;;;;;;0.20;0.20;;;;;;;1.17;100.00;100603.13;4984419;28;20051;-81
2021/12/11 10:00:10;;;;;;;0.20;0.20;;;;;;;1.20;100.00;100600.00;4987607;28;20050;-83
2021/12/11 10:02:43;;;;;;;0.20;0.20;;;;;;;1.19;100.00;100607.22;4998102;28;20054;-84
2021/12/11 10:05:30;;;;;;;0.20;0.20;;;;;;;1.23;100.00;100614.81;4989417;28;20069;-83
2021/12/11 10:08:26;;;;;;;0.30;0.30;;;;;;;1.20;100.00;100616.06;4987490;28;20050;-85
2021/12/11 10:11:09;;;;;;;0.27;0.27;;;;;;;1.20;100.00;100618.75;4984336;28;20051;-82
2021/12/11 10:13:47;;;;;;;0.20;0.20;;;;;;;1.26;100.00;100607.16;4992230;28;20305;-84
2021/12/11 10:16:25;;;;;;;0.25;0.25;;;;;;;1.24;100.00;100595.03;4987658;28;20046;-82
2021/12/11 10:18:58;;;;;;;;;;;;;;;1.39;100.00;100608.09;4973559;28;20046;-82
2021/12/11 10:21:35;;;;;;;0.30;0.30;;;;;;;1.39;100.00;100602.72;4981547;28;19936;-82
2021/12/11 10:24:11;;;;;;;0.20;0.20;;;;;;;1.34;100.00;100614.09;4966199;28;20058;-82
2021/12/11 10:26:45;;;;;;;0.20;0.20;;;;;;;1.31;100.00;100610.03;4968210;28;20054;-82
2021/12/11 10:29:19;;;;;;;0.20;0.20;;;;;;;1.33;100.00;100607.94;4970782;28;20053;-83
2021/12/11 10:31:52;;;;;;;0.20;0.20;;;;;;;1.31;100.00;100612.69;4970499;28;20730;-82
2021/12/11 10:34:29;;;;;;;0.20;0.20;;;;;;;1.39;100.00;100608.91;4972931;28;20053;-82
2021/12/11 10:37:07;;;;;;;0.20;0.20;;;;;;;1.39;100.00;100610.78;4970799;28;20050;-82
2021/12/11 10:39:45;;;;;;;0.20;0.20;;;;;;;1.36;100.00;100607.47;4972640;28;20599;-82
2021/12/11 10:42:18;;;;;;;;;;;;;;;1.48;100.00;100617.50;4967680;28;20213;-82
2021/12/11 10:44:55;;;;;;;0.30;0.30;;;;;;;1.49;100.00;100614.59;4975607;28;20382;-82
2021/12/11 10:47:33;;;;;;;0.20;0.20;;;;;;;1.64;100.00;100610.72;4976347;28;20376;-83
2021/12/11 10:50:10;;;;;;;0.20;0.20;;;;;;;1.55;100.00;100620.94;4966627;28;20042;-82
2021/12/11 10:52:44;;;;;;;0.30;0.30;;;;;;;1.57;100.00;100621.53;4972411;28;20433;-82
2021/12/11 10:55:22;;;;;;;0.20;0.20;;;;;;;1.59;100.00;100622.13;4965823;28;20438;-81
2021/12/11 10:57:57;;;;;;;0.30;0.30;;;;;;;1.56;100.00;100624.44;4965197;28;20049;-82
2021/12/11 11:00:35;;;;;;;0.20;0.20;;;;;;;1.69;100.00;100637.72;4963102;28;20061;-82
2021/12/11 11:03:10;;;;;;;0.20;0.20;;;;;;;1.66;100.00;100643.53;4963691;28;20115;-83
2021/12/11 11:05:44;;;;;;;0.30;0.30;;;;;;;1.59;100.00;100637.38;4963505;28;20054;-83
2021/12/11 11:08:17;;;;;;;0.20;0.20;;;;;;;1.64;100.00;100641.06;4969903;28;20057;-83
2021/12/11 11:10:55;;;;;;;0.10;0.10;;;;;;;1.62;100.00;100653.06;4969642;28;20058;-83
2021/12/11 11:13:28;;;;;;;0.20;0.20;;;;;;;1.67;100.00;100655.88;4965969;28;20050;-83
2021/12/11 11:16:02;;;;;;;0.20;0.20;;;;;;;1.64;100.00;100665.22;4972432;28;20562;-82
2021/12/11 11:18:32;;;;;;;0.30;0.30;;;;;;;1.65;100.00;100672.19;4971058;28;20046;-83
2021/12/11 11:21:10;;;;;;;0.20;0.20;;;;;;;1.61;100.00;100665.63;4975645;28;20072;-82
2021/12/11 11:23:46;;;;;;;0.30;0.30;;;;;;;1.64;100.00;100672.44;4971365;28;20050;-82
2021/12/11 11:26:17;;;;;;;0.20;0.20;;;;;;;1.73;100.00;100681.84;4970557;28;20863;-83
2021/12/11 11:28:45;;;;;;;0.20;0.20;;;;;;;1.80;100.00;100674.53;4969736;28;20413;-82
2021/12/11 11:31:22;;;;;;;0.20;0.20;;;;;;;1.81;100.00;100680.72;4970658;28;20061;-83
2021/12/11 11:33:57;;;;;;;0.22;0.22;;;;;;;1.89;100.00;100672.38;4970378;28;20054;-83
2021/12/11 11:36:26;;;;;;;0.20;0.20;;;;;;;1.85;100.00;100673.88;4976347;28;20046;-81
2021/12/11 11:39:03;;;;;;;0.30;0.30;;;;;;;1.83;100.00;100670.59;4970793;28;20058;-83
2021/12/11 11:41:39;;;;;;;0.20;0.20;;;;;;;1.86;100.00;100676.34;4970727;28;20510;-82
2021/12/11 11:44:08;;;;;;;0.20;0.20;;;;;;;1.86;100.00;100681.72;4969789;28;20498;-83
2021/12/11 11:46:38;;;;;;;0.20;0.20;;;;;;;1.89;100.00;100688.47;4967502;28;20053;-82
2021/12/11 11:49:11;;;;;;;0.20;0.20;;;;;;;1.92;100.00;100688.06;4974369;28;20061;-82
2021/12/11 11:51:48;;;;;;;0.30;0.30;;;;;;;1.91;100.00;100696.34;4968313;28;20553;-83
2021/12/11 11:54:18;;;;;;;0.20;0.20;;;;;;;1.92;100.00;100688.06;4967983;28;20061;-82
2021/12/11 11:56:55;;;;;;;0.30;0.30;;;;;;;1.94;100.00;100691.31;4963418;28;20522;-81
2021/12/11 11:59:29;;;;;;;0.20;0.20;;;;;;;1.85;100.00;100682.75;4999907;28;20050;-83